Time;durP1;ratioP1;P1;durP2;ratioP2;P2;SDS_P1;SDS_P2;PMS_P1;PMS_P2;Temp;Humidity;BMP_temperature;BMP_pressure;BME280_temperature;BME280_humidity;BME280_pressure;Samples;Min_cycle;Max_cycle;Signal;HPM_P1;HPM_P2
2023/08/23 00:01:54;;;;;;;34.67;28.48;;;15.60;99.90;;;;;;5073341;28;20035;-73
2023/08/23 00:04:20;;;;;;;33.53;28.65;;;15.60;99.90;;;;;;5073212;28;20517;-73
2023/08/23 00:06:46;;;;;;;33.85;28.85;;;15.50;99.90;;;;;;5073565;28;20030;-73
2023/08/23 00:09:12;;;;;;;38.47;31.33;;;15.50;99.90;;;;;;5072638;28;20028;-73
2023/08/23 00:11:37;;;;;;;36.33;29.35;;;15.50;99.90;;;;;;5073300;28;20074;-73
2023/08/23 00:14:03;;;;;;;40.42;32.20;;;15.50;99.90;;;;;;5072963;28;20025;-73
2023/08/23 00:16:29;;;;;;;37.13;30.75;;;15.50;99.90;;;;;;5072597;28;20029;-73
2023/08/23 00:18:54;;;;;;;60.00;43.13;;;15.40;99.90;;;;;;5073728;28;20107;-73
2023/08/23 00:21:20;;;;;;;58.40;45.42;;;15.50;99.90;;;;;;5073280;28;20017;-73
2023/08/23 00:23:46;;;;;;;52.92;40.47;;;15.50;99.90;;;;;;5073623;28;20028;-72
2023/08/23 00:26:11;;;;;;;62.85;46.90;;;15.50;99.90;;;;;;5072484;28;20068;-73
2023/08/23 00:28:39;;;;;;;66.78;49.53;;;15.60;99.90;;;;;;5073416;28;20115;-73
2023/08/23 00:31:04;;;;;;;64.32;46.72;;;15.60;99.90;;;;;;5072577;28;20024;-72
2023/08/23 00:33:30;;;;;;;57.28;43.95;;;15.50;99.90;;;;;;5072949;28;20063;-72
2023/08/23 00:35:56;;;;;;;59.58;44.05;;;15.50;99.90;;;;;;5073116;28;20485;-72
2023/08/23 00:38:21;;;;;;;60.22;46.22;;;15.50;99.90;;;;;;5073493;28;20032;-73
2023/08/23 00:40:47;;;;;;;66.07;49.17;;;15.50;99.90;;;;;;5072911;28;20120;-72
2023/08/23 00:43:12;;;;;;;72.10;52.65;;;15.50;99.90;;;;;;5076667;28;20024;-73
2023/08/23 00:45:41;;;;;;;71.97;53.08;;;15.50;99.90;;;;;;5076521;28;20100;-72
2023/08/23 00:48:08;;;;;;;77.75;55.53;;;15.60;99.90;;;;;;5076655;28;20033;-73
2023/08/23 00:50:34;;;;;;;79.75;58.60;;;15.60;99.90;;;;;;5077023;28;20024;-73
2023/08/23 00:53:02;;;;;;;73.28;54.75;;;15.60;99.90;;;;;;5076649;28;20081;-73
2023/08/23 00:55:28;;;;;;;65.35;47.65;;;15.60;99.90;;;;;;5076364;28;20033;-73
2023/08/23 00:57:54;;;;;;;70.30;53.78;;;15.50;99.90;;;;;;5075588;28;20101;-73
2023/08/23 01:00:20;;;;;;;64.47;48.20;;;15.40;99.90;;;;;;5076130;28;20059;-73
2023/08/23 01:02:45;;;;;;;55.08;43.35;;;15.40;99.90;;;;;;5075694;28;20024;-73
2023/08/23 01:05:12;;;;;;;59.33;43.60;;;15.30;99.90;;;;;;5076743;28;20051;-73
2023/08/23 01:07:59;;;;;;;50.22;40.35;;;15.30;99.90;;;;;;5076135;28;20024;-73
2023/08/23 01:10:35;;;;;;;56.42;43.55;;;15.20;99.90;;;;;;5076613;28;20060;-73
2023/08/23 01:13:16;;;;;;;69.45;49.28;;;15.20;99.90;;;;;;5076196;28;20458;-73
2023/08/23 01:15:44;;;;;;;57.40;45.50;;;15.20;99.90;;;;;;5076124;28;20033;-73
2023/08/23 01:18:10;;;;;;;66.82;48.30;;;15.10;99.90;;;;;;5076194;28;20017;-72
2023/08/23 01:20:37;;;;;;;55.22;43.50;;;15.10;99.90;;;;;;5075922;28;20050;-73
2023/08/23 01:23:19;;;;;;;52.35;40.63;;;15.10;99.90;;;;;;5076171;28;20048;-73
2023/08/23 01:25:52;;;;;;;48.22;38.65;;;15.00;99.90;;;;;;5076120;28;20382;-73
2023/08/23 01:28:19;;;;;;;57.45;44.03;;;15.00;99.90;;;;;;5075627;28;20046;-73
2023/08/23 01:30:46;;;;;;;56.05;42.47;;;14.90;99.90;;;;;;5075562;28;20032;-73
2023/08/23 01:33:25;;;;;;;51.15;39.55;;;14.90;99.90;;;;;;5075576;28;20129;-72
2023/08/23 01:38:35;;;;;;;51.42;40.47;;;14.90;99.90;;;;;;5111992;27;20384;-72
2023/08/23 01:41:01;;;;;;;59.17;45.80;;;14.90;99.90;;;;;;5111566;28;20441;-72
2023/08/23 01:43:27;;;;;;;51.47;40.35;;;14.80;99.90;;;;;;5111401;28;20132;-73
2023/08/23 01:45:52;;;;;;;54.30;41.47;;;14.80;99.90;;;;;;5111847;28;20024;-72
2023/08/23 01:48:18;;;;;;;50.90;39.88;;;14.80;99.90;;;;;;5111689;28;20024;-72
2023/08/23 01:50:45;;;;;;;52.53;39.70;;;14.70;99.90;;;;;;5111427;28;20031;-72
2023/08/23 01:53:10;;;;;;;49.05;39.38;;;14.70;99.90;;;;;;5111851;28;20031;-73
2023/08/23 01:55:36;;;;;;;53.83;39.90;;;14.70;99.90;;;;;;5111306;28;20031;-72
2023/08/23 01:58:01;;;;;;;46.50;36.20;;;14.70;99.90;;;;;;5111493;28;20054;-73
2023/08/23 02:00:27;;;;;;;45.50;35.85;;;14.60;99.90;;;;;;5111702;28;20024;-73
2023/08/23 02:02:53;;;;;;;48.92;37.20;;;14.60;99.90;;;;;;5111778;28;20031;-72
2023/08/23 02:05:18;;;;;;;47.92;36.85;;;14.60;99.90;;;;;;5111341;28;20521;-73
2023/08/23 02:07:44;;;;;;;48.35;37.08;;;14.50;99.90;;;;;;5110748;28;20028;-73
2023/08/23 02:10:09;;;;;;;56.78;41.53;;;14.50;99.90;;;;;;5110865;28;20024;-73
2023/08/23 02:12:35;;;;;;;55.78;41.75;;;14.50;99.90;;;;;;5111444;28;20032;-74
2023/08/23 02:15:01;;;;;;;52.47;39.50;;;14.40;99.90;;;;;;5111466;28;20031;-73
2023/08/23 02:17:27;;;;;;;48.90;39.00;;;14.50;99.90;;;;;;5110905;28;20028;-72
2023/08/23 02:19:52;;;;;;;50.65;37.85;;;14.40;99.90;;;;;;5111335;28;20519;-74
2023/08/23 02:22:18;;;;;;;54.13;40.42;;;14.40;99.90;;;;;;5111032;28;20027;-73
2023/08/23 02:24:43;;;;;;;64.78;48.53;;;14.40;99.90;;;;;;5110958;28;20028;-73
2023/08/23 02:27:09;;;;;;;61.72;47.30;;;14.40;99.90;;;;;;5110150;28;20477;-74
2023/08/23 02:29:34;;;;;;;57.95;43.22;;;14.30;99.90;;;;;;5111187;28;20108;-73
2023/08/23 02:32:00;;;;;;;57.90;43.60;;;14.30;99.90;;;;;;5110889;28;20423;-73
2023/08/23 02:34:26;;;;;;;51.30;40.25;;;14.40;99.90;;;;;;5110820;28;20032;-73
2023/08/23 02:36:51;;;;;;;49.53;38.92;;;14.30;99.90;;;;;;5110057;28;20047;-73
2023/08/23 02:39:17;;;;;;;52.13;37.28;;;14.30;99.90;;;;;;5110236;28;20073;-73
2023/08/23 02:41:42;;;;;;;49.63;39.45;;;14.30;99.90;;;;;;5110568;27;20020;-74
2023/08/23 02:44:08;;;;;;;48.33;39.05;;;14.30;99.90;;;;;;5110420;28;20016;-74
2023/08/23 02:46:34;;;;;;;42.80;35.22;;;14.20;99.90;;;;;;5110659;28;20032;-74
2023/08/23 02:48:59;;;;;;;50.33;37.53;;;14.20;99.90;;;;;;5102074;28;20028;-74
2023/08/23 02:51:25;;;;;;;48.53;37.15;;;14.20;99.90;;;;;;5097189;28;20377;-74
2023/08/23 02:53:51;;;;;;;53.65;40.00;;;14.20;99.90;;;;;;5096860;28;20031;-74
2023/08/23 02:56:16;;;;;;;50.65;38.80;;;14.20;99.90;;;;;;5096588;28;20115;-73
2023/08/23 02:58:42;;;;;;;48.95;37.85;;;14.20;99.90;;;;;;5095766;28;20046;-74
2023/08/23 03:01:08;;;;;;;46.92;36.25;;;14.20;99.90;;;;;;5096300;28;20115;-73
2023/08/23 03:03:33;;;;;;;56.83;40.67;;;14.10;99.90;;;;;;5096970;28;20077;-73
2023/08/23 03:05:59;;;;;;;53.30;42.80;;;14.20;99.90;;;;;;5096289;28;20533;-73
2023/08/23 03:08:26;;;;;;;49.78;39.03;;;14.20;99.90;;;;;;5096894;28;20028;-73
2023/08/23 03:10:52;;;;;;;51.78;37.03;;;14.20;99.90;;;;;;5096550;28;20056;-72
2023/08/23 03:13:17;;;;;;;49.45;37.10;;;14.10;99.90;;;;;;5096718;28;20450;-73
2023/08/23 03:15:43;;;;;;;44.83;34.85;;;14.20;99.90;;;;;;5096448;28;20024;-72
2023/08/23 03:18:09;;;;;;;47.08;35.03;;;14.10;99.90;;;;;;5096183;28;20347;-72
2023/08/23 03:20:35;;;;;;;45.25;33.90;;;14.10;99.90;;;;;;5095981;28;20037;-72
2023/08/23 03:23:00;;;;;;;43.42;32.78;;;14.10;99.90;;;;;;5096588;28;20085;-72
2023/08/23 03:25:26;;;;;;;38.60;32.72;;;14.00;99.90;;;;;;5095967;28;20044;-72
2023/08/23 03:27:52;;;;;;;38.45;31.20;;;14.00;99.90;;;;;;5095318;28;20032;-72
2023/08/23 03:30:19;;;;;;;36.33;29.50;;;14.00;99.90;;;;;;5096155;28;20035;-72
2023/08/23 03:32:44;;;;;;;40.15;29.83;;;14.00;99.90;;;;;;5096399;28;20024;-72
2023/08/23 03:35:10;;;;;;;41.72;31.25;;;14.00;99.90;;;;;;5096309;28;20075;-71
2023/08/23 03:37:35;;;;;;;41.90;32.70;;;14.00;99.90;;;;;;5095379;28;20063;-72
2023/08/23 03:40:01;;;;;;;48.72;33.97;;;14.00;99.90;;;;;;5095951;28;20020;-72
2023/08/23 03:42:27;;;;;;;44.35;33.80;;;13.90;99.90;;;;;;5096183;28;20334;-72
2023/08/23 03:44:53;;;;;;;42.15;31.60;;;14.00;99.90;;;;;;5096074;28;20020;-72
2023/08/23 03:47:18;;;;;;;36.95;29.50;;;14.10;99.90;;;;;;5095889;28;20108;-71
2023/08/23 03:49:44;;;;;;;36.80;29.48;;;13.90;99.90;;;;;;5095830;28;20419;-72
2023/08/23 03:52:10;;;;;;;39.92;30.75;;;13.90;99.90;;;;;;5095507;28;20028;-72
2023/08/23 03:54:35;;;;;;;39.17;31.63;;;13.90;99.90;;;;;;5095985;28;20343;-72
2023/08/23 03:57:01;;;;;;;48.13;34.05;;;13.90;99.90;;;;;;5095564;28;20035;-72
2023/08/23 03:59:26;;;;;;;45.92;34.47;;;13.90;99.90;;;;;;5095550;28;20024;-72
2023/08/23 04:01:52;;;;;;;44.15;34.35;;;13.90;99.90;;;;;;5094732;28;20378;-71
2023/08/23 04:04:18;;;;;;;42.47;33.17;;;13.90;99.90;;;;;;5095828;28;20024;-71
2023/08/23 04:06:43;;;;;;;46.22;33.80;;;13.90;99.90;;;;;;5095162;28;20028;-71
2023/08/23 04:09:09;;;;;;;43.05;32.05;;;13.90;99.90;;;;;;5095650;28;20351;-72
2023/08/23 04:11:35;;;;;;;48.55;37.33;;;13.90;99.90;;;;;;5095126;28;20028;-74
2023/08/23 04:14:01;;;;;;;44.88;33.78;;;13.80;99.90;;;;;;5095332;28;20024;-72
2023/08/23 04:16:26;;;;;;;40.22;32.30;;;13.80;99.90;;;;;;5095176;28;20036;-71
2023/08/23 04:18:53;;;;;;;39.13;31.35;;;13.80;99.90;;;;;;5094866;28;20020;-72
2023/08/23 04:21:19;;;;;;;38.55;31.00;;;13.80;99.90;;;;;;5095470;28;20184;-72
2023/08/23 04:23:45;;;;;;;39.40;31.27;;;13.80;99.90;;;;;;5095347;28;20470;-72
2023/08/23 04:26:10;;;;;;;40.88;31.38;;;13.80;99.90;;;;;;5094974;28;20107;-72
2023/08/23 04:28:37;;;;;;;37.92;29.95;;;13.70;99.90;;;;;;5095250;28;20028;-73
2023/08/23 04:31:03;;;;;;;38.75;30.83;;;13.70;99.90;;;;;;5095252;28;20073;-72
2023/08/23 04:33:29;;;;;;;42.65;32.97;;;13.80;99.90;;;;;;5094746;28;20030;-72
2023/08/23 04:35:54;;;;;;;45.95;34.38;;;13.80;99.90;;;;;;5094715;28;20103;-72
2023/08/23 04:38:20;;;;;;;42.30;31.67;;;13.70;99.90;;;;;;5093755;28;20044;-72
2023/08/23 04:40:45;;;;;;;41.30;31.65;;;13.80;99.90;;;;;;5094796;28;20111;-72
2023/08/23 04:43:11;;;;;;;41.28;32.25;;;13.80;99.90;;;;;;5094931;28;20028;-72
2023/08/23 04:45:38;;;;;;;40.30;30.85;;;13.80;99.90;;;;;;5094689;28;20032;-72
2023/08/23 04:48:04;;;;;;;43.22;32.38;;;13.80;99.90;;;;;;5094604;28;20040;-72
2023/08/23 04:50:30;;;;;;;46.63;34.90;;;13.90;99.90;;;;;;5094951;28;20062;-72
2023/08/23 04:52:55;;;;;;;48.17;38.05;;;13.90;99.90;;;;;;5094268;28;20036;-72
2023/08/23 04:55:21;;;;;;;49.92;35.38;;;13.90;99.90;;;;;;5094384;28;20028;-72
2023/08/23 04:57:47;;;;;;;39.53;31.95;;;14.00;99.90;;;;;;5094209;28;20492;-72
2023/08/23 05:00:13;;;;;;;40.00;31.27;;;14.00;99.90;;;;;;5094689;28;20024;-72
2023/08/23 05:02:39;;;;;;;53.15;39.65;;;14.00;99.90;;;;;;5094714;28;20051;-73
2023/08/23 05:05:06;;;;;;;46.58;34.70;;;14.10;99.90;;;;;;5094362;28;20511;-73
2023/08/23 05:07:33;;;;;;;43.72;33.78;;;14.30;99.90;;;;;;5093969;28;20070;-73
2023/08/23 05:09:59;;;;;;;44.25;32.40;;;14.30;99.90;;;;;;5093939;28;20051;-73
2023/08/23 05:12:24;;;;;;;43.40;33.60;;;14.50;99.90;;;;;;5093725;28;20039;-74
2023/08/23 05:14:50;;;;;;;52.78;38.50;;;14.60;99.90;;;;;;5093992;28;20036;-74
2023/08/23 05:17:16;;;;;;;44.75;32.95;;;14.90;99.90;;;;;;5094097;28;20085;-73
2023/08/23 05:19:42;;;;;;;50.25;37.67;;;15.10;99.90;;;;;;5094214;28;20390;-74
2023/08/23 05:22:07;;;;;;;50.90;40.78;;;15.30;99.90;;;;;;5093496;28;20518;-75
2023/08/23 05:24:33;;;;;;;44.22;34.58;;;15.50;99.90;;;;;;5093994;28;20028;-75
2023/08/23 05:26:58;;;;;;;44.22;35.22;;;15.80;99.90;;;;;;5094310;28;20035;-73
2023/08/23 05:29:24;;;;;;;38.63;29.92;;;16.00;99.90;;;;;;5094459;28;20032;-73
2023/08/23 05:31:50;;;;;;;43.15;29.52;;;16.20;99.90;;;;;;5093908;28;20032;-70
2023/08/23 05:34:15;;;;;;;37.08;28.02;;;16.30;99.90;;;;;;5093445;28;20534;-70
2023/08/23 05:36:41;;;;;;;34.40;28.33;;;16.40;99.90;;;;;;5093455;28;20136;-70
2023/08/23 05:39:06;;;;;;;29.63;24.60;;;16.40;99.90;;;;;;5093709;28;20055;-71
2023/08/23 05:41:32;;;;;;;36.55;24.98;;;16.40;99.90;;;;;;5093857;28;20020;-71
2023/08/23 05:43:58;;;;;;;40.63;26.60;;;16.20;99.90;;;;;;5094205;28;20052;-71
2023/08/23 05:46:23;;;;;;;41.15;26.33;;;16.10;99.90;;;;;;5093752;28;20024;-71
2023/08/23 05:48:49;;;;;;;41.03;26.50;;;16.00;99.90;;;;;;5093803;28;20449;-71
2023/08/23 05:51:15;;;;;;;44.22;27.27;;;16.00;99.90;;;;;;5094056;28;20024;-71
2023/08/23 05:53:41;;;;;;;40.22;28.98;;;16.00;99.90;;;;;;5093657;28;20111;-71
2023/08/23 05:56:07;;;;;;;33.33;23.40;;;16.70;99.90;;;;;;5093724;28;20477;-72
2023/08/23 05:58:33;;;;;;;25.42;16.42;;;;;;;;;;5093684;28;20027;-72
2023/08/23 06:00:59;;;;;;;21.08;16.42;;;;;;;;;;5093659;28;20032;-72
2023/08/23 06:03:25;;;;;;;22.77;15.32;;;;;;;;;;5086441;28;20107;-72
2023/08/23 06:05:55;;;;;;;23.95;13.55;;;21.70;44.60;;;;;;5080240;28;20028;-69
2023/08/23 06:08:21;;;;;;;21.92;13.00;;;;;;;;;;5090113;28;20035;-69
2023/08/23 06:10:46;;;;;;;21.00;12.40;;;22.60;1.00;;;;;;5090176;28;20051;-69
2023/08/23 06:13:12;;;;;;;19.40;12.60;;;22.90;1.00;;;;;;5091024;28;20032;-69
2023/08/23 06:15:37;;;;;;;23.63;12.52;;;23.60;99.90;;;;;;5087474;28;20402;-69
2023/08/23 06:18:03;;;;;;;18.92;12.10;;;22.60;99.90;;;;;;5090833;28;20067;-69
2023/08/23 06:20:29;;;;;;;21.30;12.45;;;24.00;99.90;;;;;;5085394;28;20021;-69
2023/08/23 06:22:56;;;;;;;22.63;12.82;;;23.70;1.00;;;;;;5089050;28;20024;-69
2023/08/23 06:25:22;;;;;;;22.20;12.43;;;22.70;99.90;;;;;;5082512;28;20071;-69
2023/08/23 06:27:47;;;;;;;18.67;11.77;;;22.90;99.90;;;;;;5095065;28;20028;-69
2023/08/23 06:30:16;;;;;;;18.92;11.45;;;23.30;99.90;;;;;;5096279;28;20115;-69
2023/08/23 06:32:46;;;;;;;16.85;11.13;;;24.10;99.90;;;;;;5093526;28;20482;-70
2023/08/23 06:35:13;;;;;;;21.23;11.25;;;24.40;1.00;;;;;;5083030;28;20115;-70
2023/08/23 06:37:38;;;;;;;20.02;11.23;;;24.00;86.00;;;;;;5096489;28;20043;-70
2023/08/23 06:40:05;;;;;;;18.42;11.48;;;23.90;1.00;;;;;;5094956;28;20039;-70
2023/08/23 06:42:30;;;;;;;17.98;11.23;;;23.70;1.00;;;;;;5094317;28;20024;-70
2023/08/23 06:44:56;;;;;;;21.13;10.27;;;23.60;1.00;;;;;;5095322;28;20565;-69
2023/08/23 06:47:21;;;;;;;16.65;11.45;;;23.30;54.10;;;;;;5086278;28;20032;-70
2023/08/23 06:49:47;;;;;;;20.85;11.63;;;22.60;99.90;;;;;;5089831;28;20375;-69
2023/08/23 06:52:13;;;;;;;23.60;10.88;;;22.80;99.90;;;;;;5093026;28;20032;-69
2023/08/23 06:54:38;;;;;;;21.92;11.82;;;23.60;99.90;;;;;;5096411;28;20032;-69
2023/08/23 06:57:04;;;;;;;18.42;11.63;;;24.10;1.00;;;;;;5091881;28;20032;-69
2023/08/23 06:59:30;;;;;;;20.92;11.73;;;24.20;99.90;;;;;;5094240;28;20036;-69
2023/08/23 07:01:55;;;;;;;14.18;10.30;;;24.40;59.60;;;;;;5096328;28;20104;-70
2023/08/23 07:04:21;;;;;;;19.45;11.27;;;25.50;1.00;;;;;;5095358;28;20039;-70
2023/08/23 07:06:46;;;;;;;21.02;11.98;;;25.90;56.60;;;;;;5095460;28;20119;-70
2023/08/23 07:09:12;;;;;;;17.67;11.43;;;25.30;99.90;;;;;;5094825;28;20043;-70
2023/08/23 07:11:38;;;;;;;15.00;11.15;;;25.30;1.00;;;;;;5093143;28;20032;-70
2023/08/23 07:14:04;;;;;;;22.20;12.10;;;25.50;1.10;;;;;;5097304;28;20081;-70
2023/08/23 07:16:29;;;;;;;20.65;12.18;;;24.90;99.90;;;;;;5099713;28;20386;-70
2023/08/23 07:18:55;;;;;;;21.13;13.02;;;24.20;99.90;;;;;;5097419;28;20032;-69
2023/08/23 07:21:21;;;;;;;21.45;13.25;;;23.40;1.00;;;;;;5085923;28;20043;-70
2023/08/23 07:23:46;;;;;;;22.92;13.90;;;22.80;99.90;;;;;;5075390;28;20032;-70
2023/08/23 07:26:12;;;;;;;20.80;13.70;;;22.40;99.90;;;;;;5091549;28;20393;-70
2023/08/23 07:28:37;;;;;;;24.90;14.05;;;22.00;1.00;;;;;;5094121;28;20124;-69
2023/08/23 07:31:03;;;;;;;20.63;12.93;;;22.10;1.00;;;;;;5085852;28;20044;-75
2023/08/23 07:33:29;;;;;;;21.33;13.98;;;22.20;1.00;;;;;;5076144;28;20028;-69
2023/08/23 07:35:58;;;;;;;26.50;14.60;;;22.20;1.00;;;;;;5075194;28;20362;-69
2023/08/23 07:38:24;;;;;;;27.67;13.88;;;22.00;1.00;;;;;;5080615;28;20049;-69
2023/08/23 07:40:50;;;;;;;23.92;15.00;;;21.90;1.00;;;;;;5094275;28;20396;-69
2023/08/23 07:43:15;;;;;;;26.65;14.13;;;21.90;1.00;;;;;;5093236;28;20038;-69
2023/08/23 07:45:41;;;;;;;27.02;14.55;;;22.00;1.00;;;;;;5092924;28;20530;-69
2023/08/23 07:48:06;;;;;;;23.00;13.90;;;22.60;1.00;;;;;;5095522;28;20111;-69
2023/08/23 07:50:32;;;;;;;20.98;13.77;;;23.70;99.90;;;;;;5090905;28;20504;-69
2023/08/23 07:52:58;;;;;;;18.50;13.23;;;24.10;1.00;;;;;;5074701;28;20020;-70
2023/08/23 07:55:23;;;;;;;19.40;12.27;;;24.50;99.90;;;;;;5079589;28;20036;-69
2023/08/23 07:57:49;;;;;;;19.08;13.18;;;24.50;23.50;;;;;;5095351;28;20059;-70
2023/08/23 08:00:15;;;;;;;18.77;12.30;;;24.50;99.90;;;;;;5078328;28;20028;-70
2023/08/23 08:02:41;;;;;;;22.35;11.90;;;25.10;1.00;;;;;;5095313;28;20032;-70
2023/08/23 08:05:07;;;;;;;21.35;11.35;;;25.20;99.90;;;;;;5082911;28;20037;-70
2023/08/23 08:07:33;;;;;;;21.00;11.55;;;26.00;99.90;;;;;;5091640;28;20074;-70
2023/08/23 08:09:59;;;;;;;22.20;12.50;;;26.10;99.90;;;;;;5086628;28;20504;-70
2023/08/23 08:12:24;;;;;;;19.15;11.50;;;26.00;1.00;;;;;;5075018;28;20040;-70
2023/08/23 08:14:50;;;;;;;16.80;11.77;;;26.00;1.00;;;;;;5074754;28;20158;-70
2023/08/23 08:17:15;;;;;;;20.60;11.65;;;25.30;99.90;;;;;;5076539;28;20040;-69
2023/08/23 08:19:41;;;;;;;23.65;11.25;;;25.30;99.90;;;;;;5091615;28;20603;-70
2023/08/23 08:22:07;;;;;;;19.48;11.75;;;25.50;72.70;;;;;;5094990;28;20024;-70
2023/08/23 08:24:32;;;;;;;16.92;11.27;;;25.40;99.90;;;;;;5085869;28;20021;-69
2023/08/23 08:26:58;;;;;;;22.48;12.00;;;25.90;99.90;;;;;;5077192;28;20036;-70
2023/08/23 08:29:23;;;;;;;15.95;10.70;;;26.40;99.90;;;;;;5079354;28;20039;-69
2023/08/23 08:31:50;;;;;;;19.67;11.02;;;26.50;99.90;;;;;;5093143;28;20031;-70
2023/08/23 08:34:17;;;;;;;19.70;11.48;;;27.20;99.90;;;;;;5092681;28;20032;-70
2023/08/23 08:36:43;;;;;;;14.10;10.38;;;27.60;89.00;;;;;;5077669;28;20048;-70
2023/08/23 08:39:08;;;;;;;15.88;11.07;;;27.70;1.00;;;;;;5089701;28;20446;-70
2023/08/23 08:41:34;;;;;;;21.10;12.32;;;27.10;1.00;;;;;;5094191;28;20478;-70
2023/08/23 08:44:01;;;;;;;29.90;11.20;;;26.80;99.90;;;;;;5094319;28;20062;-70
2023/08/23 08:46:26;;;;;;;16.60;11.50;;;27.40;19.90;;;;;;5093776;28;20028;-70
2023/08/23 08:48:52;;;;;;;20.10;13.45;;;27.50;1.00;;;;;;5093915;28;20020;-71
2023/08/23 08:51:20;;;;;;;23.17;12.07;;;27.20;1.00;;;;;;5083014;28;20469;-70
2023/08/23 08:53:52;;;;;;;18.55;12.20;;;26.70;99.90;;;;;;5081438;28;20121;-71
2023/08/23 08:56:19;;;;;;;30.92;12.35;;;26.70;99.90;;;;;;5091902;28;20024;-71
2023/08/23 08:58:46;;;;;;;20.75;11.52;;;26.60;99.90;;;;;;5094288;28;20021;-70
2023/08/23 09:01:14;;;;;;;17.58;10.88;;;26.30;1.00;;;;;;5089249;28;20122;-71
2023/08/23 09:03:40;;;;;;;21.02;11.18;;;26.80;99.90;;;;;;5092791;28;20035;-71
2023/08/23 09:06:07;;;;;;;15.27;10.00;;;27.40;99.90;;;;;;5082584;28;20501;-71
2023/08/23 09:08:33;;;;;;;17.85;9.70;;;28.20;1.00;;;;;;5086366;28;20029;-70
2023/08/23 09:10:59;;;;;;;18.23;10.68;;;28.20;99.90;;;;;;5083589;28;20036;-71
2023/08/23 09:13:25;;;;;;;16.33;9.77;;;27.60;1.00;;;;;;5088762;28;20058;-70
2023/08/23 09:15:51;;;;;;;16.10;10.95;;;27.90;99.90;;;;;;5091273;28;20516;-70
2023/08/23 09:18:19;;;;;;;18.80;10.75;;;27.50;99.90;;;;;;5073714;28;20120;-71
2023/08/23 09:20:45;;;;;;;17.13;10.05;;;28.40;99.90;;;;;;5087499;28;20031;-71
2023/08/23 09:23:10;;;;;;;19.00;11.02;;;29.00;1.00;;;;;;5090469;28;20031;-70
2023/08/23 09:25:36;;;;;;;17.02;10.35;;;28.20;1.00;;;;;;5086475;28;20032;-71
2023/08/23 09:28:01;;;;;;;16.38;11.07;;;27.80;99.90;;;;;;5093825;28;20035;-71
2023/08/23 09:30:27;;;;;;;20.80;9.85;;;28.40;45.90;;;;;;5079991;28;20038;-70
2023/08/23 09:32:53;;;;;;;22.60;11.27;;;28.80;22.00;;;;;;5093408;28;20386;-71
2023/08/23 09:35:18;;;;;;;17.92;10.13;;;28.00;99.90;;;;;;5092658;28;20032;-73
2023/08/23 09:37:46;;;;;;;18.20;9.48;;;28.10;45.00;;;;;;5085549;28;20155;-73
2023/08/23 09:40:20;;;;;;;39.67;10.13;;;27.50;99.90;;;;;;5093867;28;20023;-74
2023/08/23 09:42:46;;;;;;;14.70;8.40;;;27.90;99.70;;;;;;5093754;28;20055;-73
2023/08/23 09:45:17;;;;;;;15.02;8.65;;;27.00;99.90;;;;;;5090860;28;20482;-72
2023/08/23 09:47:54;;;;;;;15.50;9.05;;;27.50;99.90;;;;;;5087290;28;20059;-74
2023/08/23 09:50:21;;;;;;;15.63;8.20;;;27.40;99.90;;;;;;5078545;28;20029;-74
2023/08/23 09:52:51;;;;;;;17.05;7.68;;;27.80;99.90;;;;;;5087322;28;20104;-73
2023/08/23 09:55:17;;;;;;;15.13;8.52;;;28.50;99.90;;;;;;5083428;28;20042;-74
2023/08/23 09:57:43;;;;;;;13.50;8.60;;;28.30;1.00;;;;;;5093781;28;20036;-74
2023/08/23 10:00:09;;;;;;;18.52;10.27;;;28.60;1.00;;;;;;5079400;28;20150;-75
2023/08/23 10:02:36;;;;;;;16.88;9.82;;;28.40;5.10;;;;;;5097761;28;20031;-73
2023/08/23 10:05:04;;;;;;;13.93;10.70;;;28.60;99.90;;;;;;5097844;28;20032;-73
2023/08/23 10:07:33;;;;;;;18.90;10.90;;;28.80;1.00;;;;;;5089969;28;20124;-73
2023/08/23 10:09:58;;;;;;;18.75;10.18;;;29.60;1.00;;;;;;5091270;28;20042;-73
2023/08/23 10:12:25;;;;;;;15.73;10.57;;;28.50;1.00;;;;;;5080711;28;20028;-73
2023/08/23 10:14:53;;;;;;;16.50;10.48;;;29.00;1.00;;;;;;5096503;28;20073;-72
2023/08/23 10:17:21;;;;;;;16.25;10.32;;;29.30;1.00;;;;;;5091035;28;20401;-73
2023/08/23 10:19:47;;;;;;;15.23;9.70;;;29.60;1.00;;;;;;5083118;28;20032;-73
2023/08/23 10:22:14;;;;;;;19.30;9.77;;;29.30;1.00;;;;;;5085262;28;20077;-72
2023/08/23 10:24:40;;;;;;;14.30;9.60;;;29.90;1.00;;;;;;5093530;28;20020;-73
2023/08/23 10:27:08;;;;;;;15.48;11.23;;;29.70;99.90;;;;;;5074563;28;20052;-73
2023/08/23 10:29:37;;;;;;;16.50;10.85;;;29.40;99.90;;;;;;5072504;28;20037;-72
2023/08/23 10:32:07;;;;;;;19.50;9.50;;;28.40;11.40;;;;;;5057931;28;20056;-73
2023/08/23 10:34:35;;;;;;;17.58;10.82;;;29.10;40.50;;;;;;5057286;28;20064;-73
2023/08/23 10:37:13;;;;;;;18.17;10.90;;;28.90;1.00;;;;;;5056016;28;20049;-73
2023/08/23 10:39:44;;;;;;;20.35;10.63;;;28.30;1.00;;;;;;5061351;28;20386;-72
2023/08/23 10:42:12;;;;;;;17.77;10.00;;;27.80;99.90;;;;;;5069052;28;20032;-72
2023/08/23 10:44:58;;;;;;;19.75;10.13;;;28.70;99.90;;;;;;5076614;28;20025;-72
2023/08/23 10:47:23;;;;;;;17.02;9.63;;;29.00;44.00;;;;;;5074127;28;20520;-72
2023/08/23 10:49:50;;;;;;;12.57;9.35;;;29.40;1.00;;;;;;5073154;28;20064;-73
2023/08/23 10:52:16;;;;;;;15.43;8.20;;;29.00;1.00;;;;;;5076301;28;20036;-72
2023/08/23 10:54:42;;;;;;;21.00;8.98;;;27.60;99.90;;;;;;5068895;28;20040;-72
2023/08/23 10:57:08;;;;;;;13.10;8.52;;;27.30;99.90;;;;;;5056095;28;20033;-72
2023/08/23 10:59:34;;;;;;;13.27;7.38;;;27.00;1.00;;;;;;5057087;28;20067;-72
2023/08/23 11:02:00;;;;;;;9.82;7.40;;;26.90;1.00;;;;;;5069423;28;20066;-72
2023/08/23 11:04:26;;;;;;;11.75;7.07;;;27.40;99.90;;;;;;5074689;28;20402;-72
2023/08/23 11:06:52;;;;;;;17.17;8.10;;;28.10;99.90;;;;;;5057883;28;20025;-72
2023/08/23 11:09:18;;;;;;;12.88;7.93;;;28.30;1.00;;;;;;5055899;28;20032;-72
2023/08/23 11:11:44;;;;;;;12.32;7.47;;;28.20;99.90;;;;;;5062572;28;20028;-72
2023/08/23 11:14:10;;;;;;;8.57;5.75;;;28.10;99.90;;;;;;5057183;28;20040;-72
2023/08/23 11:16:35;;;;;;;11.68;6.43;;;28.40;99.90;;;;;;5063627;28;20158;-72
2023/08/23 11:19:03;;;;;;;9.48;5.82;;;28.50;1.00;;;;;;5075751;28;20012;-72
2023/08/23 11:21:31;;;;;;;5.85;5.00;;;28.30;1.00;;;;;;5076106;28;20036;-72
2023/08/23 11:23:57;;;;;;;9.55;5.65;;;28.50;4.40;;;;;;5076071;28;20032;-72
2023/08/23 11:26:22;;;;;;;9.85;5.18;;;28.70;1.00;;;;;;5073565;28;20316;-72
2023/08/23 11:28:48;;;;;;;6.57;5.25;;;28.40;98.10;;;;;;5055934;28;20526;-72
2023/08/23 11:31:13;;;;;;;8.98;6.07;;;28.20;99.90;;;;;;5064051;28;20497;-72
2023/08/23 11:33:39;;;;;;;11.68;6.88;;;27.80;74.20;;;;;;5075217;28;20477;-72
2023/08/23 11:36:05;;;;;;;11.35;7.22;;;27.40;99.90;;;;;;5073292;28;20045;-72
2023/08/23 11:38:31;;;;;;;14.25;7.40;;;27.40;99.90;;;;;;5063268;28;20048;-72
2023/08/23 11:40:57;;;;;;;12.00;7.78;;;27.60;99.90;;;;;;5061074;28;20020;-72
2023/08/23 11:43:27;;;;;;;11.27;7.55;;;27.80;69.60;;;;;;5073643;28;20112;-72
2023/08/23 11:45:53;;;;;;;20.10;7.05;;;27.60;96.90;;;;;;5073030;28;20115;-72
2023/08/23 11:48:20;;;;;;;10.65;6.10;;;27.40;99.90;;;;;;5075909;28;20119;-72
2023/08/23 11:50:46;;;;;;;8.18;6.03;;;28.00;99.90;;;;;;5065433;28;20040;-73
2023/08/23 11:53:12;;;;;;;12.82;5.65;;;28.20;1.00;;;;;;5069177;28;20032;-75
2023/08/23 11:55:40;;;;;;;9.80;5.70;;;28.00;1.00;;;;;;5067181;28;20055;-72
2023/08/23 11:58:06;;;;;;;8.68;5.00;;;27.90;1.00;;;;;;5065626;28;20079;-72
2023/08/23 12:00:33;;;;;;;8.88;5.30;;;27.80;20.20;;;;;;5061530;28;20060;-72
2023/08/23 12:02:59;;;;;;;9.63;5.32;;;28.00;1.00;;;;;;5075707;28;20112;-72
2023/08/23 12:05:24;;;;;;;11.07;5.82;;;27.80;1.00;;;;;;5073992;28;20543;-72
2023/08/23 12:07:50;;;;;;;12.88;6.82;;;28.10;1.00;;;;;;5063491;28;20126;-72
2023/08/23 12:10:16;;;;;;;8.85;5.30;;;28.30;1.00;;;;;;5059831;28;20124;-72
2023/08/23 12:12:42;;;;;;;11.35;6.10;;;28.40;1.00;;;;;;5073284;28;20355;-72
2023/08/23 12:15:08;;;;;;;9.35;7.18;;;27.80;99.90;;;;;;5056354;28;20504;-73
2023/08/23 12:17:34;;;;;;;8.20;5.40;;;27.50;59.60;;;;;;5054591;28;20025;-72
2023/08/23 12:19:59;;;;;;;8.63;5.03;;;27.30;99.90;;;;;;5063924;28;20028;-72
2023/08/23 12:22:25;;;;;;;8.80;4.93;;;27.00;60.20;;;;;;5072374;28;20101;-72
2023/08/23 12:24:51;;;;;;;7.50;4.35;;;27.10;99.90;;;;;;5070390;28;20032;-73
2023/08/23 12:27:17;;;;;;;8.73;5.40;;;27.10;99.90;;;;;;5072391;28;20025;-73
2023/08/23 12:29:43;;;;;;;7.82;4.90;;;27.50;99.90;;;;;;5073357;28;20082;-73
2023/08/23 12:32:09;;;;;;;6.85;5.22;;;27.70;99.90;;;;;;5063095;28;20036;-72